CheckWX is a tool to help pilots better visualize weather data.  It is not intended as a substitute for an official pre-flight weather briefing.

07:43:38 UTC

KAUG TAF
Augusta State Airport
Augusta, Maine, USA
KAUG 190520Z 1906/2006 00000KT 1/2SM FG VV002 FM190800 00000KT 1/4SM FG VV001 FM191200 VRB04KT P6SM SCT050 FM200300 17004KT 1/2SM FG VV002

Jun-19@
06:00 UTC

Jun-19 @ 06:00 UTC

Jun-19@
08:00 UTC

Jun-19 @ 08:00 UTC

KAUG 190520Z 1906/2006 00000KT 1/2SM FG VV002
Conditions
Fog
Cloud Levels
  • Vertical visibility at 200' AGL

Jun-19@
08:00 UTC

Jun-19 @ 08:00 UTC

Jun-19@
12:00 UTC

Jun-19 @ 12:00 UTC

FM190800 00000KT 1/4SM FG VV001

From

From Standard forecast or significant change

Conditions
Fog
Cloud Levels
  • Vertical visibility at 100' AGL

Jun-19@
12:00 UTC

Jun-19 @ 12:00 UTC

Jun-20@
03:00 UTC

Jun-20 @ 03:00 UTC

FM191200 VRB04KT P6SM SCT050

From

From Standard forecast or significant change

Wind
  • Variable at 4 KTS
Cloud Levels
  • Scattered at 5,000' AGL

Jun-20@
03:00 UTC

Jun-20 @ 03:00 UTC

Jun-20@
06:00 UTC

Jun-20 @ 06:00 UTC

FM200300 17004KT 1/2SM FG VV002

From

From Standard forecast or significant change

Wind
  • 170° at 4 KTS
Conditions
Fog
Cloud Levels
  • Vertical visibility at 200' AGL